sensor_id;sensor_type;location;lat;lon;timestamp;temperature;humidity
18408;DHT22;9330;52.210;21.174;2023-03-02T00:00:38;-1.60;99.90
18408;DHT22;9330;52.210;21.174;2023-03-02T00:03:06;-1.60;99.90
18408;DHT22;9330;52.210;21.174;2023-03-02T00:05:34;-1.60;99.90
18408;DHT22;9330;52.210;21.174;2023-03-02T00:08:03;-1.70;99.90
18408;DHT22;9330;52.210;21.174;2023-03-02T00:10:30;-1.60;99.90
18408;DHT22;9330;52.210;21.174;2023-03-02T00:12:58;-1.60;99.90
18408;DHT22;9330;52.210;21.174;2023-03-02T00:15:25;-1.70;99.90
18408;DHT22;9330;52.210;21.174;2023-03-02T00:17:52;-1.70;99.90
18408;DHT22;9330;52.210;21.174;2023-03-02T00:20:19;-1.70;99.90
18408;DHT22;9330;52.210;21.174;2023-03-02T00:22:46;-1.80;99.90
18408;DHT22;9330;52.210;21.174;2023-03-02T00:25:16;-1.70;99.90
18408;DHT22;9330;52.210;21.174;2023-03-02T00:27:43;-1.80;99.90
18408;DHT22;9330;52.210;21.174;2023-03-02T00:30:11;-1.60;99.90
18408;DHT22;9330;52.210;21.174;2023-03-02T00:32:38;-1.80;99.90
18408;DHT22;9330;52.210;21.174;2023-03-02T00:35:06;-1.80;99.90
18408;DHT22;9330;52.210;21.174;2023-03-02T00:37:34;-1.80;99.90
18408;DHT22;9330;52.210;21.174;2023-03-02T00:40:01;-1.80;99.90
18408;DHT22;9330;52.210;21.174;2023-03-02T00:42:31;-1.90;99.90
18408;DHT22;9330;52.210;21.174;2023-03-02T00:44:58;-1.80;99.90
18408;DHT22;9330;52.210;21.174;2023-03-02T00:47:26;-1.80;99.90
18408;DHT22;9330;52.210;21.174;2023-03-02T00:49:53;-1.80;99.90
18408;DHT22;9330;52.210;21.174;2023-03-02T00:52:20;-1.90;99.90
18408;DHT22;9330;52.210;21.174;2023-03-02T00:54:47;-1.80;99.90
18408;DHT22;9330;52.210;21.174;2023-03-02T00:57:14;-1.90;99.90
18408;DHT22;9330;52.210;21.174;2023-03-02T00:59:42;-1.90;99.90
18408;DHT22;9330;52.210;21.174;2023-03-02T01:02:09;-2.00;99.90
18408;DHT22;9330;52.210;21.174;2023-03-02T01:04:37;-1.90;99.90
18408;DHT22;9330;52.210;21.174;2023-03-02T01:07:07;-1.90;99.90
18408;DHT22;9330;52.210;21.174;2023-03-02T01:09:35;-2.00;99.90
18408;DHT22;9330;52.210;21.174;2023-03-02T01:12:02;-1.80;99.90
18408;DHT22;9330;52.210;21.174;2023-03-02T01:14:30;-2.10;99.90
18408;DHT22;9330;52.210;21.174;2023-03-02T01:16:58;-2.00;99.90
18408;DHT22;9330;52.210;21.174;2023-03-02T01:19:25;-2.00;99.90
18408;DHT22;9330;52.210;21.174;2023-03-02T01:21:52;-2.00;99.90
18408;DHT22;9330;52.210;21.174;2023-03-02T01:24:19;-1.50;99.90
18408;DHT22;9330;52.210;21.174;2023-03-02T01:26:46;-2.10;99.90
18408;DHT22;9330;52.210;21.174;2023-03-02T01:29:13;-2.10;99.90
18408;DHT22;9330;52.210;21.174;2023-03-02T01:31:40;-2.00;99.90
18408;DHT22;9330;52.210;21.174;2023-03-02T01:34:08;-2.00;99.90
18408;DHT22;9330;52.210;21.174;2023-03-02T01:36:35;-2.10;99.90
18408;DHT22;9330;52.210;21.174;2023-03-02T01:39:02;-2.10;99.90
18408;DHT22;9330;52.210;21.174;2023-03-02T01:41:30;-2.10;99.90
18408;DHT22;9330;52.210;21.174;2023-03-02T01:43:57;-2.10;99.90
18408;DHT22;9330;52.210;21.174;2023-03-02T01:46:25;-2.10;99.90
18408;DHT22;9330;52.210;21.174;2023-03-02T01:48:56;-2.00;99.90
18408;DHT22;9330;52.210;21.174;2023-03-02T01:51:27;-1.90;99.90
18408;DHT22;9330;52.210;21.174;2023-03-02T01:53:56;-1.80;99.90
18408;DHT22;9330;52.210;21.174;2023-03-02T01:56:25;-1.70;99.90
18408;DHT22;9330;52.210;21.174;2023-03-02T01:58:56;-1.60;99.90
18408;DHT22;9330;52.210;21.174;2023-03-02T02:01:27;-1.50;99.90
18408;DHT22;9330;52.210;21.174;2023-03-02T02:03:54;-1.10;99.90
18408;DHT22;9330;52.210;21.174;2023-03-02T02:06:25;-1.20;99.90
18408;DHT22;9330;52.210;21.174;2023-03-02T02:08:55;-1.10;99.90
18408;DHT22;9330;52.210;21.174;2023-03-02T02:11:23;-1.10;99.90
18408;DHT22;9330;52.210;21.174;2023-03-02T02:13:52;-1.00;99.90
18408;DHT22;9330;52.210;21.174;2023-03-02T02:16:20;-1.00;99.90
18408;DHT22;9330;52.210;21.174;2023-03-02T02:18:47;-1.00;99.90
18408;DHT22;9330;52.210;21.174;2023-03-02T02:21:15;-0.90;99.90
18408;DHT22;9330;52.210;21.174;2023-03-02T02:23:51;-0.80;99.90
18408;DHT22;9330;52.210;21.174;2023-03-02T02:26:25;-0.80;99.90
18408;DHT22;9330;52.210;21.174;2023-03-02T02:28:56;-0.80;99.90
18408;DHT22;9330;52.210;21.174;2023-03-02T02:31:29;-0.70;99.90
18408;DHT22;9330;52.210;21.174;2023-03-02T02:34:03;-0.60;99.90
18408;DHT22;9330;52.210;21.174;2023-03-02T02:36:35;-0.70;99.90
18408;DHT22;9330;52.210;21.174;2023-03-02T02:39:06;-0.60;99.90
18408;DHT22;9330;52.210;21.174;2023-03-02T02:41:37;-0.60;99.90
18408;DHT22;9330;52.210;21.174;2023-03-02T02:44:04;-0.60;99.90
18408;DHT22;9330;52.210;21.174;2023-03-02T02:46:32;-0.60;99.90
18408;DHT22;9330;52.210;21.174;2023-03-02T02:49:00;-0.50;99.90
18408;DHT22;9330;52.210;21.174;2023-03-02T02:51:28;-0.50;99.90
18408;DHT22;9330;52.210;21.174;2023-03-02T02:53:56;-0.50;99.90
18408;DHT22;9330;52.210;21.174;2023-03-02T02:56:26;-0.40;99.90
18408;DHT22;9330;52.210;21.174;2023-03-02T02:58:58;-0.40;99.90
18408;DHT22;9330;52.210;21.174;2023-03-02T03:01:26;-0.40;99.90
18408;DHT22;9330;52.210;21.174;2023-03-02T03:03:54;-0.30;99.90
18408;DHT22;9330;52.210;21.174;2023-03-02T03:06:23;-0.40;99.90
18408;DHT22;9330;52.210;21.174;2023-03-02T03:08:57;-0.40;99.90
18408;DHT22;9330;52.210;21.174;2023-03-02T03:11:26;-0.40;99.90
18408;DHT22;9330;52.210;21.174;2023-03-02T03:13:59;-0.40;99.90
18408;DHT22;9330;52.210;21.174;2023-03-02T03:16:29;-0.30;99.90
18408;DHT22;9330;52.210;21.174;2023-03-02T03:18:59;-0.40;99.90
18408;DHT22;9330;52.210;21.174;2023-03-02T03:21:27;-0.30;99.90
18408;DHT22;9330;52.210;21.174;2023-03-02T03:23:54;-0.30;99.90
18408;DHT22;9330;52.210;21.174;2023-03-02T03:26:21;-0.20;99.90
18408;DHT22;9330;52.210;21.174;2023-03-02T03:28:48;-0.20;99.90
18408;DHT22;9330;52.210;21.174;2023-03-02T03:31:16;-0.20;99.90
18408;DHT22;9330;52.210;21.174;2023-03-02T03:33:43;-0.30;99.90
18408;DHT22;9330;52.210;21.174;2023-03-02T03:36:10;-0.20;99.90
18408;DHT22;9330;52.210;21.174;2023-03-02T03:38:37;-0.20;99.90
18408;DHT22;9330;52.210;21.174;2023-03-02T03:41:03;-0.20;99.90
18408;DHT22;9330;52.210;21.174;2023-03-02T03:43:30;-0.20;99.90
18408;DHT22;9330;52.210;21.174;2023-03-02T03:45:57;-0.20;99.90
18408;DHT22;9330;52.210;21.174;2023-03-02T03:48:26;-0.10;99.90
18408;DHT22;9330;52.210;21.174;2023-03-02T03:50:53;-0.20;99.90
18408;DHT22;9330;52.210;21.174;2023-03-02T03:53:19;-0.10;99.90
18408;DHT22;9330;52.210;21.174;2023-03-02T03:55:46;-0.20;99.90
18408;DHT22;9330;52.210;21.174;2023-03-02T03:58:15;-0.20;99.90
18408;DHT22;9330;52.210;21.174;2023-03-02T04:00:42;-0.10;99.90
18408;DHT22;9330;52.210;21.174;2023-03-02T04:03:10;-0.20;99.90
18408;DHT22;9330;52.210;21.174;2023-03-02T04:05:38;0.00;99.90
18408;DHT22;9330;52.210;21.174;2023-03-02T04:08:05;-0.10;99.90
18408;DHT22;9330;52.210;21.174;2023-03-02T04:10:33;-0.20;99.90
18408;DHT22;9330;52.210;21.174;2023-03-02T04:13:00;-0.10;99.90
18408;DHT22;9330;52.210;21.174;2023-03-02T04:15:27;-0.20;99.90
18408;DHT22;9330;52.210;21.174;2023-03-02T04:17:54;-0.10;99.90
18408;DHT22;9330;52.210;21.174;2023-03-02T04:20:22;-0.10;99.90
18408;DHT22;9330;52.210;21.174;2023-03-02T04:22:51;-0.10;99.90
18408;DHT22;9330;52.210;21.174;2023-03-02T04:25:21;-0.10;99.90
18408;DHT22;9330;52.210;21.174;2023-03-02T04:27:50;-0.10;99.90
18408;DHT22;9330;52.210;21.174;2023-03-02T04:30:20;-0.10;99.90
18408;DHT22;9330;52.210;21.174;2023-03-02T04:32:47;-0.10;99.90
18408;DHT22;9330;52.210;21.174;2023-03-02T04:35:15;-0.10;99.90
18408;DHT22;9330;52.210;21.174;2023-03-02T04:37:43;-0.10;99.90
18408;DHT22;9330;52.210;21.174;2023-03-02T04:40:14;0.00;99.90
18408;DHT22;9330;52.210;21.174;2023-03-02T04:42:42;-0.10;99.90
18408;DHT22;9330;52.210;21.174;2023-03-02T04:45:11;0.00;99.90
18408;DHT22;9330;52.210;21.174;2023-03-02T04:47:38;-0.10;99.90
18408;DHT22;9330;52.210;21.174;2023-03-02T04:50:07;0.00;99.90
18408;DHT22;9330;52.210;21.174;2023-03-02T04:52:33;0.00;99.90
18408;DHT22;9330;52.210;21.174;2023-03-02T04:55:00;0.00;99.90
18408;DHT22;9330;52.210;21.174;2023-03-02T04:57:29;0.00;99.90
18408;DHT22;9330;52.210;21.174;2023-03-02T04:59:56;0.00;99.90
18408;DHT22;9330;52.210;21.174;2023-03-02T05:02:24;0.00;99.90
18408;DHT22;9330;52.210;21.174;2023-03-02T05:04:51;0.00;99.90
18408;DHT22;9330;52.210;21.174;2023-03-02T05:07:18;0.00;99.90
18408;DHT22;9330;52.210;21.174;2023-03-02T05:09:45;0.10;99.90
18408;DHT22;9330;52.210;21.174;2023-03-02T05:12:11;0.10;99.90
18408;DHT22;9330;52.210;21.174;2023-03-02T05:14:40;0.10;99.90
18408;DHT22;9330;52.210;21.174;2023-03-02T05:17:06;0.10;99.90
18408;DHT22;9330;52.210;21.174;2023-03-02T05:19:33;0.10;99.90
18408;DHT22;9330;52.210;21.174;2023-03-02T05:22:00;0.10;99.90
18408;DHT22;9330;52.210;21.174;2023-03-02T05:24:27;0.20;99.90
18408;DHT22;9330;52.210;21.174;2023-03-02T05:26:54;0.10;99.90
18408;DHT22;9330;52.210;21.174;2023-03-02T05:29:21;0.10;99.90
18408;DHT22;9330;52.210;21.174;2023-03-02T05:31:49;0.10;99.90
18408;DHT22;9330;52.210;21.174;2023-03-02T05:34:17;0.10;99.90
18408;DHT22;9330;52.210;21.174;2023-03-02T05:36:44;0.20;99.90
18408;DHT22;9330;52.210;21.174;2023-03-02T05:39:11;0.10;99.90
18408;DHT22;9330;52.210;21.174;2023-03-02T05:41:39;0.20;99.90
18408;DHT22;9330;52.210;21.174;2023-03-02T05:44:06;0.10;99.90
18408;DHT22;9330;52.210;21.174;2023-03-02T05:46:36;0.20;99.90
18408;DHT22;9330;52.210;21.174;2023-03-02T05:49:05;0.20;99.90
18408;DHT22;9330;52.210;21.174;2023-03-02T05:51:31;0.20;99.90
18408;DHT22;9330;52.210;21.174;2023-03-02T05:53:58;0.10;99.90
18408;DHT22;9330;52.210;21.174;2023-03-02T05:56:25;0.20;99.90
18408;DHT22;9330;52.210;21.174;2023-03-02T05:58:52;0.20;99.90
18408;DHT22;9330;52.210;21.174;2023-03-02T06:01:19;0.20;99.90
18408;DHT22;9330;52.210;21.174;2023-03-02T06:03:46;0.10;99.90
18408;DHT22;9330;52.210;21.174;2023-03-02T06:06:15;0.20;99.90
18408;DHT22;9330;52.210;21.174;2023-03-02T06:08:42;0.20;99.90
18408;DHT22;9330;52.210;21.174;2023-03-02T06:11:10;0.20;99.90
18408;DHT22;9330;52.210;21.174;2023-03-02T06:13:37;0.30;99.90
18408;DHT22;9330;52.210;21.174;2023-03-02T06:16:05;0.30;99.90
18408;DHT22;9330;52.210;21.174;2023-03-02T06:18:32;0.20;99.90
18408;DHT22;9330;52.210;21.174;2023-03-02T06:20:59;0.30;99.90
18408;DHT22;9330;52.210;21.174;2023-03-02T06:23:27;0.30;99.90
18408;DHT22;9330;52.210;21.174;2023-03-02T06:25:54;0.20;99.90
18408;DHT22;9330;52.210;21.174;2023-03-02T06:28:22;0.60;99.90
18408;DHT22;9330;52.210;21.174;2023-03-02T06:30:49;0.30;99.90
18408;DHT22;9330;52.210;21.174;2023-03-02T06:33:18;0.50;99.90
18408;DHT22;9330;52.210;21.174;2023-03-02T06:35:46;0.40;99.90
18408;DHT22;9330;52.210;21.174;2023-03-02T06:38:13;0.40;99.90
18408;DHT22;9330;52.210;21.174;2023-03-02T06:40:41;0.50;99.90
18408;DHT22;9330;52.210;21.174;2023-03-02T06:43:09;0.40;99.90
18408;DHT22;9330;52.210;21.174;2023-03-02T06:45:35;0.40;99.90
18408;DHT22;9330;52.210;21.174;2023-03-02T06:48:03;0.40;99.90
18408;DHT22;9330;52.210;21.174;2023-03-02T06:50:30;0.40;99.90
18408;DHT22;9330;52.210;21.174;2023-03-02T06:52:57;0.40;99.90
18408;DHT22;9330;52.210;21.174;2023-03-02T06:55:24;0.40;99.90
18408;DHT22;9330;52.210;21.174;2023-03-02T06:57:53;0.50;99.90
18408;DHT22;9330;52.210;21.174;2023-03-02T07:00:20;0.40;99.90
18408;DHT22;9330;52.210;21.174;2023-03-02T07:02:52;0.40;99.90
18408;DHT22;9330;52.210;21.174;2023-03-02T07:05:20;0.50;99.90
18408;DHT22;9330;52.210;21.174;2023-03-02T07:07:47;0.40;99.90
18408;DHT22;9330;52.210;21.174;2023-03-02T07:10:14;0.50;99.90
18408;DHT22;9330;52.210;21.174;2023-03-02T07:12:42;0.40;99.90
18408;DHT22;9330;52.210;21.174;2023-03-02T07:15:11;0.50;99.90
18408;DHT22;9330;52.210;21.174;2023-03-02T07:17:39;0.50;99.90
18408;DHT22;9330;52.210;21.174;2023-03-02T07:20:09;0.50;99.90
18408;DHT22;9330;52.210;21.174;2023-03-02T07:22:36;0.60;99.90
18408;DHT22;9330;52.210;21.174;2023-03-02T07:25:03;0.50;99.90
18408;DHT22;9330;52.210;21.174;2023-03-02T07:27:30;0.50;99.90
18408;DHT22;9330;52.210;21.174;2023-03-02T07:29:57;0.50;99.90
18408;DHT22;9330;52.210;21.174;2023-03-02T07:32:26;0.50;99.90
18408;DHT22;9330;52.210;21.174;2023-03-02T07:34:52;0.60;99.90
18408;DHT22;9330;52.210;21.174;2023-03-02T07:37:19;0.60;99.90
18408;DHT22;9330;52.210;21.174;2023-03-02T07:39:46;0.60;99.90
18408;DHT22;9330;52.210;21.174;2023-03-02T07:42:15;0.60;99.90
18408;DHT22;9330;52.210;21.174;2023-03-02T07:44:43;0.60;99.90
18408;DHT22;9330;52.210;21.174;2023-03-02T07:47:10;0.60;99.90
18408;DHT22;9330;52.210;21.174;2023-03-02T07:49:38;0.60;99.90
18408;DHT22;9330;52.210;21.174;2023-03-02T07:52:05;0.70;99.90
18408;DHT22;9330;52.210;21.174;2023-03-02T07:54:32;0.80;99.90
18408;DHT22;9330;52.210;21.174;2023-03-02T07:56:59;0.90;99.90
18408;DHT22;9330;52.210;21.174;2023-03-02T07:59:26;0.80;99.90
18408;DHT22;9330;52.210;21.174;2023-03-02T08:01:54;0.80;99.90
18408;DHT22;9330;52.210;21.174;2023-03-02T08:04:21;0.70;99.90
18408;DHT22;9330;52.210;21.174;2023-03-02T08:06:49;0.80;99.90
18408;DHT22;9330;52.210;21.174;2023-03-02T08:09:16;0.80;99.90
18408;DHT22;9330;52.210;21.174;2023-03-02T08:11:43;0.80;99.90
18408;DHT22;9330;52.210;21.174;2023-03-02T08:14:12;0.90;99.90
18408;DHT22;9330;52.210;21.174;2023-03-02T08:16:39;0.90;99.90
18408;DHT22;9330;52.210;21.174;2023-03-02T08:19:06;0.80;99.90
18408;DHT22;9330;52.210;21.174;2023-03-02T08:21:33;1.00;99.90
18408;DHT22;9330;52.210;21.174;2023-03-02T08:24:01;1.00;99.90
18408;DHT22;9330;52.210;21.174;2023-03-02T08:26:28;1.10;99.90
18408;DHT22;9330;52.210;21.174;2023-03-02T08:28:55;1.00;99.90
18408;DHT22;9330;52.210;21.174;2023-03-02T08:31:22;1.10;99.90
18408;DHT22;9330;52.210;21.174;2023-03-02T08:33:49;1.10;99.90
18408;DHT22;9330;52.210;21.174;2023-03-02T08:36:17;1.10;99.90
18408;DHT22;9330;52.210;21.174;2023-03-02T08:38:45;1.20;99.90
18408;DHT22;9330;52.210;21.174;2023-03-02T08:41:15;1.20;99.90
18408;DHT22;9330;52.210;21.174;2023-03-02T08:43:42;1.30;99.90
18408;DHT22;9330;52.210;21.174;2023-03-02T08:46:10;1.30;99.90
18408;DHT22;9330;52.210;21.174;2023-03-02T08:48:38;1.40;99.90
18408;DHT22;9330;52.210;21.174;2023-03-02T08:51:07;1.40;99.90
18408;DHT22;9330;52.210;21.174;2023-03-02T08:53:36;1.40;99.90
18408;DHT22;9330;52.210;21.174;2023-03-02T08:56:04;1.40;99.90
18408;DHT22;9330;52.210;21.174;2023-03-02T08:58:34;1.40;99.90
18408;DHT22;9330;52.210;21.174;2023-03-02T09:01:01;1.50;99.90
18408;DHT22;9330;52.210;21.174;2023-03-02T09:03:28;1.50;99.90
18408;DHT22;9330;52.210;21.174;2023-03-02T09:05:54;1.60;99.90
18408;DHT22;9330;52.210;21.174;2023-03-02T09:08:22;1.60;99.90
18408;DHT22;9330;52.210;21.174;2023-03-02T09:10:50;1.60;99.90
18408;DHT22;9330;52.210;21.174;2023-03-02T09:13:16;1.60;99.90
18408;DHT22;9330;52.210;21.174;2023-03-02T09:15:45;1.60;99.90
18408;DHT22;9330;52.210;21.174;2023-03-02T09:18:12;1.60;99.90
18408;DHT22;9330;52.210;21.174;2023-03-02T09:20:39;1.70;99.90
18408;DHT22;9330;52.210;21.174;2023-03-02T09:23:06;1.90;99.90
18408;DHT22;9330;52.210;21.174;2023-03-02T09:25:33;1.80;99.90
18408;DHT22;9330;52.210;21.174;2023-03-02T09:28:00;1.90;99.90
18408;DHT22;9330;52.210;21.174;2023-03-02T09:30:27;1.90;99.90
18408;DHT22;9330;52.210;21.174;2023-03-02T09:32:55;1.90;99.90
18408;DHT22;9330;52.210;21.174;2023-03-02T09:35:22;1.90;99.90
18408;DHT22;9330;52.210;21.174;2023-03-02T09:37:49;1.90;99.90
18408;DHT22;9330;52.210;21.174;2023-03-02T09:40:19;2.00;99.90
18408;DHT22;9330;52.210;21.174;2023-03-02T09:43:16;2.00;99.90
18408;DHT22;9330;52.210;21.174;2023-03-02T09:45:55;2.00;99.90
18408;DHT22;9330;52.210;21.174;2023-03-02T09:48:35;2.00;99.90
18408;DHT22;9330;52.210;21.174;2023-03-02T09:51:15;2.00;99.90
18408;DHT22;9330;52.210;21.174;2023-03-02T09:53:50;2.00;99.90
18408;DHT22;9330;52.210;21.174;2023-03-02T09:56:19;2.10;99.90
18408;DHT22;9330;52.210;21.174;2023-03-02T09:58:51;2.00;99.90
18408;DHT22;9330;52.210;21.174;2023-03-02T10:01:33;2.10;99.90
18408;DHT22;9330;52.210;21.174;2023-03-02T10:04:10;2.10;99.90
18408;DHT22;9330;52.210;21.174;2023-03-02T10:06:39;2.10;99.90
18408;DHT22;9330;52.210;21.174;2023-03-02T10:09:08;2.10;99.90
18408;DHT22;9330;52.210;21.174;2023-03-02T10:11:43;2.10;99.90
18408;DHT22;9330;52.210;21.174;2023-03-02T10:14:17;2.10;99.90
18408;DHT22;9330;52.210;21.174;2023-03-02T10:16:48;2.10;99.90
18408;DHT22;9330;52.210;21.174;2023-03-02T10:19:22;2.10;99.90
18408;DHT22;9330;52.210;21.174;2023-03-02T10:21:59;2.20;99.90
18408;DHT22;9330;52.210;21.174;2023-03-02T10:24:32;2.30;99.90
18408;DHT22;9330;52.210;21.174;2023-03-02T10:27:12;2.10;99.90
18408;DHT22;9330;52.210;21.174;2023-03-02T10:29:48;2.20;99.90
18408;DHT22;9330;52.210;21.174;2023-03-02T10:32:21;2.10;99.90
18408;DHT22;9330;52.210;21.174;2023-03-02T10:34:51;2.10;99.90
18408;DHT22;9330;52.210;21.174;2023-03-02T10:37:20;2.20;99.90
18408;DHT22;9330;52.210;21.174;2023-03-02T10:39:49;2.20;99.90
18408;DHT22;9330;52.210;21.174;2023-03-02T10:42:19;2.10;99.90
18408;DHT22;9330;52.210;21.174;2023-03-02T10:44:49;2.10;99.90
18408;DHT22;9330;52.210;21.174;2023-03-02T10:47:21;2.30;99.90
18408;DHT22;9330;52.210;21.174;2023-03-02T10:49:51;2.20;99.90
18408;DHT22;9330;52.210;21.174;2023-03-02T10:52:19;2.20;99.90
18408;DHT22;9330;52.210;21.174;2023-03-02T10:54:47;2.10;99.90
18408;DHT22;9330;52.210;21.174;2023-03-02T10:57:28;2.20;99.90
18408;DHT22;9330;52.210;21.174;2023-03-02T11:00:00;2.20;99.90
18408;DHT22;9330;52.210;21.174;2023-03-02T11:02:29;2.20;99.90
18408;DHT22;9330;52.210;21.174;2023-03-02T11:05:28;2.20;99.90
18408;DHT22;9330;52.210;21.174;2023-03-02T11:07:56;2.20;99.90
18408;DHT22;9330;52.210;21.174;2023-03-02T11:10:26;2.20;99.90
18408;DHT22;9330;52.210;21.174;2023-03-02T11:12:56;2.30;99.90
18408;DHT22;9330;52.210;21.174;2023-03-02T11:15:26;2.30;99.90
18408;DHT22;9330;52.210;21.174;2023-03-02T11:17:59;2.20;99.90
18408;DHT22;9330;52.210;21.174;2023-03-02T11:20:31;2.20;99.90
18408;DHT22;9330;52.210;21.174;2023-03-02T11:23:13;2.20;99.90
18408;DHT22;9330;52.210;21.174;2023-03-02T11:25:45;2.30;99.90
18408;DHT22;9330;52.210;21.174;2023-03-02T11:28:25;2.20;99.90
18408;DHT22;9330;52.210;21.174;2023-03-02T11:30:58;2.10;99.90
18408;DHT22;9330;52.210;21.174;2023-03-02T11:33:32;2.20;99.90
18408;DHT22;9330;52.210;21.174;2023-03-02T11:36:06;2.10;99.90
18408;DHT22;9330;52.210;21.174;2023-03-02T11:38:40;2.20;99.90
18408;DHT22;9330;52.210;21.174;2023-03-02T11:41:15;2.20;99.90
18408;DHT22;9330;52.210;21.174;2023-03-02T11:43:44;2.20;99.90
18408;DHT22;9330;52.210;21.174;2023-03-02T11:46:20;2.20;99.90
18408;DHT22;9330;52.210;21.174;2023-03-02T11:48:49;2.30;99.90
18408;DHT22;9330;52.210;21.174;2023-03-02T11:51:24;2.20;99.90
18408;DHT22;9330;52.210;21.174;2023-03-02T11:53:54;2.30;99.90
18408;DHT22;9330;52.210;21.174;2023-03-02T11:56:23;2.20;99.90
18408;DHT22;9330;52.210;21.174;2023-03-02T11:58:53;2.30;99.90
18408;DHT22;9330;52.210;21.174;2023-03-02T12:01:23;2.30;99.90
18408;DHT22;9330;52.210;21.174;2023-03-02T12:03:51;2.20;99.90
18408;DHT22;9330;52.210;21.174;2023-03-02T12:06:33;2.40;99.90
18408;DHT22;9330;52.210;21.174;2023-03-02T12:09:28;2.30;99.90
18408;DHT22;9330;52.210;21.174;2023-03-02T12:11:58;2.20;99.90
18408;DHT22;9330;52.210;21.174;2023-03-02T12:14:35;2.40;99.90
18408;DHT22;9330;52.210;21.174;2023-03-02T12:17:15;2.40;99.90
18408;DHT22;9330;52.210;21.174;2023-03-02T12:19:43;2.40;99.90
18408;DHT22;9330;52.210;21.174;2023-03-02T12:22:12;2.40;99.90
18408;DHT22;9330;52.210;21.174;2023-03-02T12:24:42;2.60;99.90
18408;DHT22;9330;52.210;21.174;2023-03-02T12:27:23;2.40;99.90
18408;DHT22;9330;52.210;21.174;2023-03-02T12:29:55;2.50;99.90
18408;DHT22;9330;52.210;21.174;2023-03-02T12:32:26;2.50;99.90
18408;DHT22;9330;52.210;21.174;2023-03-02T12:34:56;2.50;99.90
18408;DHT22;9330;52.210;21.174;2023-03-02T12:37:29;2.50;99.90
18408;DHT22;9330;52.210;21.174;2023-03-02T12:40:23;2.70;99.90
18408;DHT22;9330;52.210;21.174;2023-03-02T12:43:14;2.80;99.90
18408;DHT22;9330;52.210;21.174;2023-03-02T12:46:00;2.80;99.90
18408;DHT22;9330;52.210;21.174;2023-03-02T12:48:30;2.80;99.90
18408;DHT22;9330;52.210;21.174;2023-03-02T12:51:05;2.90;99.90
18408;DHT22;9330;52.210;21.174;2023-03-02T12:53:40;2.90;99.90
18408;DHT22;9330;52.210;21.174;2023-03-02T12:56:07;2.90;99.90
18408;DHT22;9330;52.210;21.174;2023-03-02T12:58:34;2.90;99.90
18408;DHT22;9330;52.210;21.174;2023-03-02T13:01:02;2.90;99.90
18408;DHT22;9330;52.210;21.174;2023-03-02T13:03:30;3.00;99.90
18408;DHT22;9330;52.210;21.174;2023-03-02T13:06:01;3.00;99.90
18408;DHT22;9330;52.210;21.174;2023-03-02T13:08:29;3.10;99.90
18408;DHT22;9330;52.210;21.174;2023-03-02T13:11:00;3.10;99.90
18408;DHT22;9330;52.210;21.174;2023-03-02T13:13:34;3.00;99.90
18408;DHT22;9330;52.210;21.174;2023-03-02T13:16:03;3.10;99.90
18408;DHT22;9330;52.210;21.174;2023-03-02T13:18:32;3.10;99.90
18408;DHT22;9330;52.210;21.174;2023-03-02T13:21:00;3.10;99.90
18408;DHT22;9330;52.210;21.174;2023-03-02T13:23:29;3.00;99.90
18408;DHT22;9330;52.210;21.174;2023-03-02T13:25:59;3.00;99.90
18408;DHT22;9330;52.210;21.174;2023-03-02T13:28:28;3.00;99.90
18408;DHT22;9330;52.210;21.174;2023-03-02T13:30:56;3.10;99.90
18408;DHT22;9330;52.210;21.174;2023-03-02T13:33:25;3.00;99.90
18408;DHT22;9330;52.210;21.174;2023-03-02T13:35:52;3.00;99.90
18408;DHT22;9330;52.210;21.174;2023-03-02T13:38:22;3.00;99.90
18408;DHT22;9330;52.210;21.174;2023-03-02T13:40:51;2.90;99.90
18408;DHT22;9330;52.210;21.174;2023-03-02T13:43:35;3.00;99.90
18408;DHT22;9330;52.210;21.174;2023-03-02T13:46:04;2.90;99.90
18408;DHT22;9330;52.210;21.174;2023-03-02T13:48:32;3.00;99.90
18408;DHT22;9330;52.210;21.174;2023-03-02T13:51:00;3.00;99.90
18408;DHT22;9330;52.210;21.174;2023-03-02T13:53:29;2.90;99.90
18408;DHT22;9330;52.210;21.174;2023-03-02T13:55:59;3.00;99.90
18408;DHT22;9330;52.210;21.174;2023-03-02T13:58:27;2.90;99.90
18408;DHT22;9330;52.210;21.174;2023-03-02T14:00:57;2.90;99.90
18408;DHT22;9330;52.210;21.174;2023-03-02T14:03:27;3.00;99.90
18408;DHT22;9330;52.210;21.174;2023-03-02T14:05:55;2.90;99.90
18408;DHT22;9330;52.210;21.174;2023-03-02T14:08:23;3.10;99.90
18408;DHT22;9330;52.210;21.174;2023-03-02T14:10:52;3.00;99.90
18408;DHT22;9330;52.210;21.174;2023-03-02T14:13:21;3.00;99.90
18408;DHT22;9330;52.210;21.174;2023-03-02T14:15:51;3.00;99.90
18408;DHT22;9330;52.210;21.174;2023-03-02T14:18:28;3.10;99.90
18408;DHT22;9330;52.210;21.174;2023-03-02T14:20:55;3.10;99.90
18408;DHT22;9330;52.210;21.174;2023-03-02T14:23:24;3.10;99.90
18408;DHT22;9330;52.210;21.174;2023-03-02T14:25:52;3.00;99.90
18408;DHT22;9330;52.210;21.174;2023-03-02T14:28:25;3.00;99.90
18408;DHT22;9330;52.210;21.174;2023-03-02T14:30:56;3.10;99.90
18408;DHT22;9330;52.210;21.174;2023-03-02T14:33:24;3.00;99.90
18408;DHT22;9330;52.210;21.174;2023-03-02T14:35:52;3.10;99.90
18408;DHT22;9330;52.210;21.174;2023-03-02T14:38:20;3.10;99.90
18408;DHT22;9330;52.210;21.174;2023-03-02T14:40:48;3.10;99.90
18408;DHT22;9330;52.210;21.174;2023-03-02T14:43:16;3.10;99.90
18408;DHT22;9330;52.210;21.174;2023-03-02T14:45:43;3.00;99.90
18408;DHT22;9330;52.210;21.174;2023-03-02T14:48:13;3.10;99.90
18408;DHT22;9330;52.210;21.174;2023-03-02T14:50:42;3.10;99.90
18408;DHT22;9330;52.210;21.174;2023-03-02T14:53:15;3.00;99.90
18408;DHT22;9330;52.210;21.174;2023-03-02T14:55:43;2.90;99.90
18408;DHT22;9330;52.210;21.174;2023-03-02T14:58:12;3.00;99.90
18408;DHT22;9330;52.210;21.174;2023-03-02T15:00:40;3.00;99.90
18408;DHT22;9330;52.210;21.174;2023-03-02T15:03:14;3.10;99.90
18408;DHT22;9330;52.210;21.174;2023-03-02T15:05:44;3.00;99.90
18408;DHT22;9330;52.210;21.174;2023-03-02T15:08:12;3.10;99.90
18408;DHT22;9330;52.210;21.174;2023-03-02T15:10:40;3.00;99.90
18408;DHT22;9330;52.210;21.174;2023-03-02T15:13:07;3.00;99.90
18408;DHT22;9330;52.210;21.174;2023-03-02T15:15:35;3.10;99.90
18408;DHT22;9330;52.210;21.174;2023-03-02T15:18:02;2.90;99.90
18408;DHT22;9330;52.210;21.174;2023-03-02T15:20:30;3.00;99.90
18408;DHT22;9330;52.210;21.174;2023-03-02T15:22:57;3.00;99.90
18408;DHT22;9330;52.210;21.174;2023-03-02T15:25:24;3.00;99.90
18408;DHT22;9330;52.210;21.174;2023-03-02T15:27:53;2.90;99.90
18408;DHT22;9330;52.210;21.174;2023-03-02T15:30:20;2.90;99.90
18408;DHT22;9330;52.210;21.174;2023-03-02T15:32:48;2.90;99.90
18408;DHT22;9330;52.210;21.174;2023-03-02T15:35:16;2.80;99.90
18408;DHT22;9330;52.210;21.174;2023-03-02T15:37:44;2.80;99.90
18408;DHT22;9330;52.210;21.174;2023-03-02T15:40:11;3.00;99.90
18408;DHT22;9330;52.210;21.174;2023-03-02T15:42:38;2.70;99.90
18408;DHT22;9330;52.210;21.174;2023-03-02T15:45:06;2.70;99.90
18408;DHT22;9330;52.210;21.174;2023-03-02T15:47:33;2.70;99.90
18408;DHT22;9330;52.210;21.174;2023-03-02T15:50:02;2.60;99.90
18408;DHT22;9330;52.210;21.174;2023-03-02T15:52:29;2.50;99.90
18408;DHT22;9330;52.210;21.174;2023-03-02T15:54:57;2.50;99.90